Diane H — WUR7250 — position and weather

sailwx.info

Track history (hours):
 
Tides and Currents Weather Stations Pressure Air Temp Water Temp Dewpoint Dewpoint Depression Visibility Wind Speed Wind Dir Waves Ship Positions

Diane H

Owner: BOYER TOWING INC, KETCHIKAN, AK. More information available from US FCC via Universal Licensing System and Coast Guard Vessel Documentation Center.

Last reported at 2014-Oct-31 12:31 UTC. Time now 2014-Oct-31 13:02 UTC.
Position N 50°30' W 126°21'.

Type: Tow > 200 m length. MMSI: 366673090.

Date/timePositionNaut miles runAvg speedWind from/ knotsBaromVisibWave heightAir tempDewpointWater temp
2014-Oct-31 12:31N 50°30' W 126°21'14 6.2
2014-Oct-31 10:20N 50°33' W 126°41'6 5.7
2014-Oct-31 09:16N 50°38' W 126°48'6 6.1
2014-Oct-31 08:14N 50°42' W 126°56'5 6.6
2014-Oct-31 07:30N 50°44' W 127°03'6 5.9
2014-Oct-31 06:33N 50°46' W 127°10'6 5.9
2014-Oct-31 05:33N 50°50' W 127°17'6 6.0
2014-Oct-31 04:33N 50°55' W 127°24'6 6.0
2014-Oct-31 03:33N 50°58' W 127°32'6 6.2
2014-Oct-31 02:33N 51°03' W 127°39'6 6.0
2014-Oct-31 01:33N 51°06' W 127°46'6 5.5
2014-Oct-31 00:28N 51°12' W 127°51'17 5.7
2014-Oct-30 21:32N 51°28' W 127°51'197 4.8
2014-Oct-29 04:33N 54°19' W 130°35'  
2014-Oct-26 10:32N 58°13' W 135°28'7 7.5
2014-Oct-26 09:33N 58°16' W 135°40'8 7.7
2014-Oct-26 08:33N 58°17' W 135°55'10 8.7
2014-Oct-26 07:27N 58°16' W 136°13'  
2014-Oct-23 01:00N 60°12' W 147°48'   320 / 5993.0 5.4 10.0
Track history (hours):
 
Tides and Currents Weather Stations Pressure Air Temp Water Temp Dewpoint Dewpoint Depression Visibility Wind Speed Wind Dir Waves Ship Positions

Diane H

Owner: BOYER TOWING INC, KETCHIKAN, AK. More information available from US FCC via Universal Licensing System and Coast Guard Vessel Documentation Center.

Last reported at 2014-Oct-31 12:31 UTC. Time now 2014-Oct-31 13:02 UTC.
Position N 50°30' W 126°21'.

Type: Tow > 200 m length. MMSI: 366673090.

Date/timePositionNaut miles runAvg speedWind from/ knotsBaromVisibWave heightAir tempDewpointWater temp
2014-Oct-31 12:31N 50°30' W 126°21'14 6.2
2014-Oct-31 10:20N 50°33' W 126°41'6 5.7
2014-Oct-31 09:16N 50°38' W 126°48'6 6.1
2014-Oct-31 08:14N 50°42' W 126°56'5 6.6
2014-Oct-31 07:30N 50°44' W 127°03'6 5.9
2014-Oct-31 06:33N 50°46' W 127°10'6 5.9
2014-Oct-31 05:33N 50°50' W 127°17'6 6.0
2014-Oct-31 04:33N 50°55' W 127°24'6 6.0
2014-Oct-31 03:33N 50°58' W 127°32'6 6.2
2014-Oct-31 02:33N 51°03' W 127°39'6 6.0
2014-Oct-31 01:33N 51°06' W 127°46'6 5.5
2014-Oct-31 00:28N 51°12' W 127°51'17 5.7
2014-Oct-30 21:32N 51°28' W 127°51'197 4.8
2014-Oct-29 04:33N 54°19' W 130°35'  
2014-Oct-26 10:32N 58°13' W 135°28'7 7.5
2014-Oct-26 09:33N 58°16' W 135°40'8 7.7
2014-Oct-26 08:33N 58°17' W 135°55'10 8.7
2014-Oct-26 07:27N 58°16' W 136°13'  
2014-Oct-23 01:00N 60°12' W 147°48'   320 / 5993.0 5.4 10.0

Dump ship's entire track history